createdAt,value
2023-08-01T00:26:56.857Z,0
2023-08-01T00:32:13.021Z,0
2023-08-01T00:37:28.499Z,0
2023-08-01T00:42:44.653Z,0
2023-08-01T00:48:01.073Z,0
2023-08-01T00:53:16.336Z,0
2023-08-01T00:58:32.517Z,0
2023-08-01T01:03:46.715Z,0
2023-08-01T01:09:01.655Z,0
2023-08-01T01:14:18.598Z,0
2023-08-01T01:19:34.613Z,0
2023-08-01T01:24:50.155Z,0
2023-08-01T01:30:05.014Z,0
2023-08-01T01:35:19.870Z,0
2023-08-01T01:40:36.006Z,0
2023-08-01T01:45:50.893Z,0
2023-08-01T01:51:06.420Z,0
2023-08-01T01:56:21.327Z,0
2023-08-01T02:01:43.531Z,0
2023-08-01T02:22:39.132Z,0
2023-08-01T02:27:53.772Z,0
2023-08-01T02:33:09.237Z,0
2023-08-01T02:38:24.841Z,0
2023-08-01T02:43:39.072Z,0
2023-08-01T02:48:54.600Z,0
2023-08-01T02:54:10.096Z,0
2023-08-01T02:59:25.010Z,0
2023-08-01T03:04:47.592Z,0
2023-08-01T03:09:57.386Z,0
2023-08-01T03:20:27.891Z,0
2023-08-01T03:25:42.736Z,0
2023-08-01T03:30:58.115Z,0
2023-08-01T03:36:13.628Z,0
2023-08-01T03:41:28.803Z,0
2023-08-01T03:46:44.664Z,2
2023-08-01T03:52:00.995Z,3
2023-08-01T03:57:16.377Z,4
2023-08-01T04:02:31.368Z,3
2023-08-01T04:07:47.447Z,8
2023-08-01T04:13:03.571Z,15
2023-08-01T05:42:29.557Z,271
2023-08-01T05:47:44.978Z,303
2023-08-01T05:53:00.361Z,231
2023-08-01T05:58:15.211Z,177
2023-08-01T06:03:32.030Z,289
2023-08-01T06:08:46.359Z,298
2023-08-01T06:14:01.143Z,259
2023-08-01T06:19:16.702Z,300
2023-08-01T06:24:32.831Z,239
2023-08-01T06:29:49.007Z,213
2023-08-01T06:35:05.138Z,253
2023-08-01T06:40:21.346Z,318
2023-08-01T06:45:36.187Z,378
2023-08-01T06:50:52.349Z,524
2023-08-01T06:56:07.906Z,1138
2023-08-01T07:01:22.890Z,612
2023-08-01T07:06:41.301Z,890
2023-08-01T07:11:56.395Z,258
2023-08-01T07:17:12.610Z,647
2023-08-01T07:22:28.034Z,682
2023-08-01T07:27:43.577Z,883
2023-08-01T07:32:59.942Z,457
2023-08-01T07:38:16.524Z,577
2023-08-01T07:43:32.050Z,479
2023-08-01T07:48:47.011Z,549
2023-08-01T07:54:03.969Z,955
2023-08-01T07:59:19.260Z,838
2023-08-01T08:04:35.405Z,1121
2023-08-01T08:09:51.638Z,2740
2023-08-01T08:20:27.468Z,1194
2023-08-01T08:25:43.035Z,1059
2023-08-01T08:30:53.164Z,2209
2023-08-01T08:36:09.198Z,985
2023-08-01T08:41:23.369Z,1670
2023-08-01T08:46:39.191Z,866
2023-08-01T08:51:53.145Z,1769
2023-08-01T08:57:08.126Z,802
2023-08-01T09:02:24.167Z,692
2023-08-01T09:07:40.343Z,1393
2023-08-01T09:12:56.067Z,760
2023-08-01T09:18:11.388Z,507
2023-08-01T09:23:26.283Z,571
2023-08-01T09:28:41.274Z,446
2023-08-01T09:33:56.663Z,4198
2023-08-01T09:39:13.482Z,1757
2023-08-01T09:44:28.350Z,3955
2023-08-01T09:49:43.216Z,1513
2023-08-01T09:54:58.747Z,1434
2023-08-01T10:00:15.365Z,1076
2023-08-01T10:05:29.820Z,1012
2023-08-01T10:10:46.599Z,1696
2023-08-01T10:16:01.630Z,4562
2023-08-01T10:21:17.018Z,2617
2023-08-01T10:26:33.821Z,1184
2023-08-01T10:31:50.735Z,680
2023-08-01T10:37:07.428Z,71
2023-08-01T10:42:22.368Z,134
2023-08-01T10:47:37.968Z,333
2023-08-01T10:52:53.297Z,924
2023-08-01T10:58:08.844Z,906
2023-08-01T11:03:25.296Z,1040
2023-08-01T11:17:53.060Z,1310
2023-08-01T11:23:08.738Z,339
2023-08-01T11:28:23.407Z,130
2023-08-01T11:33:39.443Z,161
2023-08-01T11:38:55.566Z,766
2023-08-01T11:44:10.462Z,971
2023-08-01T12:05:14.441Z,840
2023-08-01T12:10:29.971Z,1467
2023-08-01T12:26:51.232Z,3428
2023-08-01T12:32:06.614Z,2291
2023-08-01T12:37:21.457Z,947
2023-08-01T12:42:37.649Z,1153
2023-08-01T12:47:53.995Z,1157
2023-08-01T12:53:08.853Z,1561
2023-08-01T12:58:25.500Z,2718
2023-08-01T13:03:41.773Z,1382
2023-08-01T13:08:57.831Z,1186
2023-08-01T13:14:12.665Z,699
2023-08-01T13:19:28.180Z,776
2023-08-01T13:24:43.061Z,1245
2023-08-01T13:29:57.333Z,1457
2023-08-01T13:35:12.821Z,2904
2023-08-01T13:40:28.998Z,2749
2023-08-01T13:45:55.099Z,2738
2023-08-01T13:51:06.326Z,2827
2023-08-01T13:56:21.244Z,1228
2023-08-01T14:01:35.358Z,914
2023-08-01T14:06:51.440Z,806
2023-08-01T14:17:15.708Z,1157
2023-08-01T14:22:31.253Z,2265
2023-08-01T14:27:46.745Z,1327
2023-08-01T14:33:03.263Z,2747
2023-08-01T14:48:50.872Z,2807
2023-08-01T14:54:08.288Z,489
2023-08-01T14:59:24.379Z,413
2023-08-01T15:04:39.340Z,435
2023-08-01T15:09:54.833Z,501
2023-08-01T15:15:11.018Z,450
2023-08-01T15:20:27.235Z,218
2023-08-01T15:25:42.705Z,160
2023-08-01T15:30:57.491Z,179
2023-08-01T15:36:12.365Z,276
2023-08-01T15:41:27.305Z,2248
2023-08-01T15:46:42.547Z,2139
2023-08-01T15:51:57.631Z,641
2023-08-01T15:57:13.142Z,363
2023-08-01T16:02:29.586Z,461
2023-08-01T16:07:45.482Z,2038
2023-08-01T16:13:02.291Z,1654
2023-08-01T16:18:17.137Z,257
2023-08-01T16:23:32.702Z,1973
2023-08-01T16:28:48.217Z,408
2023-08-01T16:34:03.859Z,303
2023-08-01T16:39:19.871Z,904
2023-08-01T16:44:34.742Z,451
2023-08-01T16:49:51.789Z,443
2023-08-01T16:55:07.052Z,1327
2023-08-01T17:00:21.335Z,1221
2023-08-01T17:05:38.119Z,1184
2023-08-01T17:10:53.689Z,1042
2023-08-01T17:16:08.512Z,1022
2023-08-01T17:21:24.655Z,933
2023-08-01T17:26:40.970Z,236
2023-08-01T17:31:54.408Z,906
2023-08-01T17:37:09.353Z,782
2023-08-01T17:42:25.481Z,658
2023-08-01T17:47:41.731Z,603
2023-08-01T17:52:56.556Z,270
2023-08-01T17:58:12.699Z,173
2023-08-01T18:03:27.700Z,466
2023-08-01T18:08:42.437Z,339
2023-08-01T18:13:58.620Z,119
2023-08-01T18:19:13.506Z,196
2023-08-01T18:24:28.990Z,150
2023-08-01T18:29:43.893Z,127
2023-08-01T18:34:58.097Z,101
2023-08-01T18:40:13.046Z,71
2023-08-01T18:45:29.817Z,67
2023-08-01T18:50:45.967Z,60
2023-08-01T18:56:02.090Z,34
2023-08-01T19:01:18.995Z,23
2023-08-01T19:06:34.149Z,15
2023-08-01T19:11:49.346Z,12
2023-08-01T19:17:05.535Z,9
2023-08-01T19:22:21.630Z,7
2023-08-01T19:27:36.034Z,5
2023-08-01T19:32:52.355Z,3
2023-08-01T19:38:08.197Z,2
2023-08-01T19:43:24.982Z,1
2023-08-01T19:48:41.155Z,1
2023-08-01T19:53:56.772Z,0
2023-08-01T19:59:11.555Z,0
2023-08-01T20:04:27.077Z,0
2023-08-01T20:09:41.299Z,0
2023-08-01T20:14:56.848Z,0
2023-08-01T20:20:12.996Z,0
2023-08-01T20:25:28.525Z,0
2023-08-01T21:18:06.078Z,0
2023-08-01T21:23:20.536Z,0
2023-08-01T21:28:36.036Z,0
2023-08-01T21:33:52.250Z,0
2023-08-01T21:39:07.746Z,0
2023-08-01T21:44:23.885Z,0
2023-08-01T21:49:38.792Z,0
2023-08-01T21:54:54.921Z,0
2023-08-01T22:00:10.442Z,0
2023-08-01T22:05:25.988Z,0
2023-08-01T22:10:42.143Z,0
2023-08-01T22:15:56.623Z,0
2023-08-01T22:21:11.232Z,0
2023-08-01T22:26:26.802Z,0
2023-08-01T22:31:42.286Z,0
2023-08-01T22:36:57.786Z,0
2023-08-01T22:42:12.674Z,0
2023-08-01T22:47:28.990Z,0
2023-08-01T22:52:44.356Z,0
2023-08-01T22:57:59.248Z,0
2023-08-01T23:03:15.082Z,0
2023-08-01T23:08:30.942Z,0
2023-08-01T23:13:45.805Z,0
2023-08-01T23:19:00.779Z,0
2023-08-01T23:24:16.193Z,0
2023-08-01T23:29:32.342Z,0
2023-08-01T23:34:48.578Z,0
2023-08-01T23:40:04.037Z,0
2023-08-01T23:45:20.252Z,0
2023-08-01T23:50:36.350Z,0
2023-08-01T23:55:51.899Z,0
